sensor_id;sensor_type;location;lat;lon;timestamp;pressure;altitude;pressure_sealevel;temperature;humidity
4590;BME280;2307;48.448;9.216;2023-07-13T00:02:08;95452.47;;;19.86;100.00
4590;BME280;2307;48.448;9.216;2023-07-13T00:04:35;95458.13;;;19.66;100.00
4590;BME280;2307;48.448;9.216;2023-07-13T00:07:02;95441.31;;;19.79;100.00
4590;BME280;2307;48.448;9.216;2023-07-13T00:09:28;95444.28;;;19.78;100.00
4590;BME280;2307;48.448;9.216;2023-07-13T00:11:55;95446.03;;;19.69;100.00
4590;BME280;2307;48.448;9.216;2023-07-13T00:14:23;95444.16;;;19.69;100.00
4590;BME280;2307;48.448;9.216;2023-07-13T00:16:49;95450.06;;;19.47;100.00
4590;BME280;2307;48.448;9.216;2023-07-13T00:19:17;95444.72;;;19.47;100.00
4590;BME280;2307;48.448;9.216;2023-07-13T00:21:44;95444.53;;;19.39;100.00
4590;BME280;2307;48.448;9.216;2023-07-13T00:24:11;95433.78;;;19.44;100.00
4590;BME280;2307;48.448;9.216;2023-07-13T00:26:37;95441.19;;;19.52;100.00
4590;BME280;2307;48.448;9.216;2023-07-13T00:29:04;95445.53;;;19.48;100.00
4590;BME280;2307;48.448;9.216;2023-07-13T00:31:31;95456.22;;;19.48;100.00
4590;BME280;2307;48.448;9.216;2023-07-13T00:33:57;95449.84;;;19.44;100.00
4590;BME280;2307;48.448;9.216;2023-07-13T00:36:26;95444.31;;;19.40;100.00
4590;BME280;2307;48.448;9.216;2023-07-13T00:38:52;95449.91;;;19.39;100.00
4590;BME280;2307;48.448;9.216;2023-07-13T00:41:19;95452.03;;;19.42;100.00
4590;BME280;2307;48.448;9.216;2023-07-13T00:43:45;95454.72;;;19.42;100.00
4590;BME280;2307;48.448;9.216;2023-07-13T00:46:17;95453.50;;;19.29;100.00
4590;BME280;2307;48.448;9.216;2023-07-13T00:48:43;95451.47;;;19.21;100.00
4590;BME280;2307;48.448;9.216;2023-07-13T00:51:10;95452.84;;;19.19;100.00
4590;BME280;2307;48.448;9.216;2023-07-13T00:53:39;95450.78;;;19.34;100.00
4590;BME280;2307;48.448;9.216;2023-07-13T00:56:05;95449.75;;;19.30;100.00
4590;BME280;2307;48.448;9.216;2023-07-13T00:58:32;95461.59;;;19.48;100.00
4590;BME280;2307;48.448;9.216;2023-07-13T01:00:59;95462.16;;;19.45;100.00
4590;BME280;2307;48.448;9.216;2023-07-13T01:03:25;95459.00;;;19.43;100.00
4590;BME280;2307;48.448;9.216;2023-07-13T01:05:52;95467.63;;;19.35;100.00
4590;BME280;2307;48.448;9.216;2023-07-13T01:08:19;95470.31;;;19.35;100.00
4590;BME280;2307;48.448;9.216;2023-07-13T01:10:54;95468.09;;;19.42;100.00
4590;BME280;2307;48.448;9.216;2023-07-13T01:13:21;95463.25;;;19.44;98.89
4590;BME280;2307;48.448;9.216;2023-07-13T01:15:48;95464.22;;;19.53;100.00
4590;BME280;2307;48.448;9.216;2023-07-13T01:18:18;95464.44;;;19.56;99.61
4590;BME280;2307;48.448;9.216;2023-07-13T01:20:51;95451.75;;;19.62;100.00
4590;BME280;2307;48.448;9.216;2023-07-13T01:23:18;95452.97;;;19.70;100.00
4590;BME280;2307;48.448;9.216;2023-07-13T01:25:45;95457.25;;;19.52;100.00
4590;BME280;2307;48.448;9.216;2023-07-13T01:28:11;95456.91;;;19.40;100.00
4590;BME280;2307;48.448;9.216;2023-07-13T01:30:38;95451.31;;;19.13;100.00
4590;BME280;2307;48.448;9.216;2023-07-13T01:33:05;95451.66;;;19.06;100.00
4590;BME280;2307;48.448;9.216;2023-07-13T01:35:32;95456.66;;;19.13;100.00
4590;BME280;2307;48.448;9.216;2023-07-13T01:38:00;95461.63;;;19.00;100.00
4590;BME280;2307;48.448;9.216;2023-07-13T01:40:26;95462.16;;;19.02;100.00
4590;BME280;2307;48.448;9.216;2023-07-13T01:42:53;95463.13;;;19.12;100.00
4590;BME280;2307;48.448;9.216;2023-07-13T01:45:19;95470.16;;;19.26;100.00
4590;BME280;2307;48.448;9.216;2023-07-13T01:47:46;95474.78;;;19.21;97.51
4590;BME280;2307;48.448;9.216;2023-07-13T01:50:12;95470.84;;;19.37;98.92
4590;BME280;2307;48.448;9.216;2023-07-13T01:52:38;95471.75;;;19.27;97.06
4590;BME280;2307;48.448;9.216;2023-07-13T01:55:07;95463.06;;;19.35;96.66
4590;BME280;2307;48.448;9.216;2023-07-13T01:57:33;95472.28;;;19.05;98.29
4590;BME280;2307;48.448;9.216;2023-07-13T02:00:00;95467.31;;;19.18;100.00
4590;BME280;2307;48.448;9.216;2023-07-13T02:02:27;95466.75;;;19.21;99.11
4590;BME280;2307;48.448;9.216;2023-07-13T02:04:53;95476.72;;;19.15;98.26
4590;BME280;2307;48.448;9.216;2023-07-13T02:07:20;95475.41;;;19.13;100.00
4590;BME280;2307;48.448;9.216;2023-07-13T02:09:46;95474.47;;;19.22;97.67
4590;BME280;2307;48.448;9.216;2023-07-13T02:12:14;95475.97;;;19.09;100.00
4590;BME280;2307;48.448;9.216;2023-07-13T02:14:40;95470.97;;;19.03;100.00
4590;BME280;2307;48.448;9.216;2023-07-13T02:17:09;95484.16;;;18.99;100.00
4590;BME280;2307;48.448;9.216;2023-07-13T02:19:35;95474.63;;;19.12;100.00
4590;BME280;2307;48.448;9.216;2023-07-13T02:22:02;95481.31;;;19.09;100.00
4590;BME280;2307;48.448;9.216;2023-07-13T02:24:28;95472.22;;;19.10;100.00
4590;BME280;2307;48.448;9.216;2023-07-13T02:26:55;95470.63;;;19.09;99.73
4590;BME280;2307;48.448;9.216;2023-07-13T02:29:22;95471.50;;;19.05;96.60
4590;BME280;2307;48.448;9.216;2023-07-13T02:31:49;95468.09;;;18.99;98.30
4590;BME280;2307;48.448;9.216;2023-07-13T02:34:15;95470.41;;;18.82;100.00
4590;BME280;2307;48.448;9.216;2023-07-13T02:36:41;95478.44;;;18.82;99.19
4590;BME280;2307;48.448;9.216;2023-07-13T02:39:08;95480.00;;;18.60;99.96
4590;BME280;2307;48.448;9.216;2023-07-13T02:41:35;95476.06;;;18.52;100.00
4590;BME280;2307;48.448;9.216;2023-07-13T02:44:01;95477.16;;;18.51;100.00
4590;BME280;2307;48.448;9.216;2023-07-13T02:46:30;95470.69;;;18.52;100.00
4590;BME280;2307;48.448;9.216;2023-07-13T02:48:56;95470.66;;;18.57;100.00
4590;BME280;2307;48.448;9.216;2023-07-13T02:51:23;95476.25;;;18.61;100.00
4590;BME280;2307;48.448;9.216;2023-07-13T02:53:49;95476.53;;;18.59;100.00
4590;BME280;2307;48.448;9.216;2023-07-13T02:56:15;95481.31;;;18.62;100.00
4590;BME280;2307;48.448;9.216;2023-07-13T02:58:42;95472.22;;;18.63;100.00
4590;BME280;2307;48.448;9.216;2023-07-13T03:01:09;95476.28;;;18.55;100.00
4590;BME280;2307;48.448;9.216;2023-07-13T03:03:37;95471.75;;;18.56;100.00
4590;BME280;2307;48.448;9.216;2023-07-13T03:06:04;95467.34;;;18.36;100.00
4590;BME280;2307;48.448;9.216;2023-07-13T03:08:32;95476.56;;;18.25;100.00
4590;BME280;2307;48.448;9.216;2023-07-13T03:10:59;95475.50;;;18.21;100.00
4590;BME280;2307;48.448;9.216;2023-07-13T03:13:26;95486.75;;;18.23;100.00
4590;BME280;2307;48.448;9.216;2023-07-13T03:15:52;95481.03;;;18.30;100.00
4590;BME280;2307;48.448;9.216;2023-07-13T03:18:18;95477.84;;;18.28;100.00
4590;BME280;2307;48.448;9.216;2023-07-13T03:20:46;95470.31;;;18.35;100.00
4590;BME280;2307;48.448;9.216;2023-07-13T03:23:12;95467.03;;;18.43;100.00
4590;BME280;2307;48.448;9.216;2023-07-13T03:25:39;95465.94;;;18.44;100.00
4590;BME280;2307;48.448;9.216;2023-07-13T03:28:05;95469.66;;;18.48;100.00
4590;BME280;2307;48.448;9.216;2023-07-13T03:30:31;95469.94;;;18.51;100.00
4590;BME280;2307;48.448;9.216;2023-07-13T03:32:58;95473.81;;;18.30;100.00
4590;BME280;2307;48.448;9.216;2023-07-13T03:35:24;95476.22;;;18.32;100.00
4590;BME280;2307;48.448;9.216;2023-07-13T03:37:52;95487.00;;;18.22;100.00
4590;BME280;2307;48.448;9.216;2023-07-13T03:40:18;95487.81;;;18.22;100.00
4590;BME280;2307;48.448;9.216;2023-07-13T03:42:45;95479.88;;;18.12;100.00
4590;BME280;2307;48.448;9.216;2023-07-13T03:45:11;95482.47;;;18.17;100.00
4590;BME280;2307;48.448;9.216;2023-07-13T03:47:38;95482.84;;;18.11;100.00
4590;BME280;2307;48.448;9.216;2023-07-13T03:50:05;95483.94;;;18.33;100.00
4590;BME280;2307;48.448;9.216;2023-07-13T03:52:31;95486.28;;;18.45;100.00
4590;BME280;2307;48.448;9.216;2023-07-13T03:54:59;95481.28;;;18.33;100.00
4590;BME280;2307;48.448;9.216;2023-07-13T03:57:25;95488.53;;;18.33;100.00
4590;BME280;2307;48.448;9.216;2023-07-13T03:59:52;95494.41;;;18.30;100.00
4590;BME280;2307;48.448;9.216;2023-07-13T04:02:18;95501.75;;;18.14;100.00
4590;BME280;2307;48.448;9.216;2023-07-13T04:04:45;95500.44;;;18.17;100.00
4590;BME280;2307;48.448;9.216;2023-07-13T04:07:11;95498.25;;;18.19;100.00
4590;BME280;2307;48.448;9.216;2023-07-13T04:09:37;95503.44;;;18.39;100.00
4590;BME280;2307;48.448;9.216;2023-07-13T04:12:06;95503.13;;;18.45;100.00
4590;BME280;2307;48.448;9.216;2023-07-13T04:14:32;95498.56;;;18.46;100.00
4590;BME280;2307;48.448;9.216;2023-07-13T04:16:59;95512.44;;;18.53;100.00
4590;BME280;2307;48.448;9.216;2023-07-13T04:19:25;95507.38;;;18.51;100.00
4590;BME280;2307;48.448;9.216;2023-07-13T04:21:51;95503.25;;;18.64;100.00
4590;BME280;2307;48.448;9.216;2023-07-13T04:24:18;95503.84;;;18.56;100.00
4590;BME280;2307;48.448;9.216;2023-07-13T04:26:44;95510.31;;;18.50;100.00
4590;BME280;2307;48.448;9.216;2023-07-13T04:29:12;95507.56;;;18.60;100.00
4590;BME280;2307;48.448;9.216;2023-07-13T04:31:38;95513.47;;;18.57;100.00
4590;BME280;2307;48.448;9.216;2023-07-13T04:34:05;95505.94;;;18.59;100.00
4590;BME280;2307;48.448;9.216;2023-07-13T04:36:32;95508.06;;;18.62;100.00
4590;BME280;2307;48.448;9.216;2023-07-13T04:39:02;95506.69;;;18.65;100.00
4590;BME280;2307;48.448;9.216;2023-07-13T04:41:29;95515.03;;;18.63;100.00
4590;BME280;2307;48.448;9.216;2023-07-13T04:43:55;95507.25;;;18.62;100.00
4590;BME280;2307;48.448;9.216;2023-07-13T04:46:23;95518.59;;;18.53;100.00
4590;BME280;2307;48.448;9.216;2023-07-13T04:48:49;95523.03;;;18.63;100.00
4590;BME280;2307;48.448;9.216;2023-07-13T04:51:18;95518.19;;;18.65;100.00
4590;BME280;2307;48.448;9.216;2023-07-13T04:53:44;95519.56;;;18.63;100.00
4590;BME280;2307;48.448;9.216;2023-07-13T04:56:10;95518.75;;;18.62;100.00
4590;BME280;2307;48.448;9.216;2023-07-13T04:58:37;95518.53;;;18.58;100.00
4590;BME280;2307;48.448;9.216;2023-07-13T05:01:04;95516.19;;;18.47;100.00
4590;BME280;2307;48.448;9.216;2023-07-13T05:03:32;95521.19;;;18.58;100.00
4590;BME280;2307;48.448;9.216;2023-07-13T05:06:00;95527.31;;;18.64;100.00
4590;BME280;2307;48.448;9.216;2023-07-13T05:08:26;95537.22;;;18.64;100.00
4590;BME280;2307;48.448;9.216;2023-07-13T05:10:53;95529.00;;;18.55;100.00
4590;BME280;2307;48.448;9.216;2023-07-13T05:13:19;95536.25;;;18.49;100.00
4590;BME280;2307;48.448;9.216;2023-07-13T05:15:47;95539.16;;;18.58;100.00
4590;BME280;2307;48.448;9.216;2023-07-13T05:18:13;95546.00;;;18.69;100.00
4590;BME280;2307;48.448;9.216;2023-07-13T05:20:41;95553.44;;;18.77;100.00
4590;BME280;2307;48.448;9.216;2023-07-13T05:23:07;95555.09;;;18.68;100.00
4590;BME280;2307;48.448;9.216;2023-07-13T05:25:33;95557.03;;;18.63;100.00
4590;BME280;2307;48.448;9.216;2023-07-13T05:28:00;95561.72;;;18.76;100.00
4590;BME280;2307;48.448;9.216;2023-07-13T05:30:26;95561.63;;;18.86;100.00
4590;BME280;2307;48.448;9.216;2023-07-13T05:32:52;95567.25;;;18.84;100.00
4590;BME280;2307;48.448;9.216;2023-07-13T05:35:19;95565.72;;;18.78;100.00
4590;BME280;2307;48.448;9.216;2023-07-13T05:37:46;95568.03;;;18.90;100.00
4590;BME280;2307;48.448;9.216;2023-07-13T05:40:13;95566.75;;;18.82;100.00
4590;BME280;2307;48.448;9.216;2023-07-13T05:42:39;95566.34;;;18.65;100.00
4590;BME280;2307;48.448;9.216;2023-07-13T05:45:06;95564.88;;;18.54;100.00
4590;BME280;2307;48.448;9.216;2023-07-13T05:47:32;95574.34;;;18.70;100.00
4590;BME280;2307;48.448;9.216;2023-07-13T05:49:59;95564.13;;;18.77;100.00
4590;BME280;2307;48.448;9.216;2023-07-13T05:52:25;95568.53;;;18.63;100.00
4590;BME280;2307;48.448;9.216;2023-07-13T05:54:53;95570.75;;;18.46;100.00
4590;BME280;2307;48.448;9.216;2023-07-13T05:57:19;95570.72;;;18.56;100.00
4590;BME280;2307;48.448;9.216;2023-07-13T05:59:46;95580.72;;;18.74;100.00
4590;BME280;2307;48.448;9.216;2023-07-13T06:02:12;95591.53;;;18.64;100.00
4590;BME280;2307;48.448;9.216;2023-07-13T06:04:38;95592.38;;;18.60;100.00
4590;BME280;2307;48.448;9.216;2023-07-13T06:07:05;95594.09;;;18.74;100.00
4590;BME280;2307;48.448;9.216;2023-07-13T06:09:31;95604.16;;;18.87;100.00
4590;BME280;2307;48.448;9.216;2023-07-13T06:11:59;95598.22;;;18.95;100.00
4590;BME280;2307;48.448;9.216;2023-07-13T06:14:25;95594.91;;;19.03;100.00
4590;BME280;2307;48.448;9.216;2023-07-13T06:16:52;95588.97;;;18.83;100.00
4590;BME280;2307;48.448;9.216;2023-07-13T06:19:18;95604.03;;;19.02;100.00
4590;BME280;2307;48.448;9.216;2023-07-13T06:21:44;95607.72;;;19.06;100.00
4590;BME280;2307;48.448;9.216;2023-07-13T06:24:11;95608.22;;;19.14;100.00
4590;BME280;2307;48.448;9.216;2023-07-13T06:26:37;95609.59;;;19.06;94.95
4590;BME280;2307;48.448;9.216;2023-07-13T06:29:05;95607.56;;;18.98;93.55
4590;BME280;2307;48.448;9.216;2023-07-13T06:31:31;95606.84;;;18.87;90.42
4590;BME280;2307;48.448;9.216;2023-07-13T06:33:58;95607.84;;;18.68;91.11
4590;BME280;2307;48.448;9.216;2023-07-13T06:36:24;95609.66;;;18.72;90.23
4590;BME280;2307;48.448;9.216;2023-07-13T06:38:50;95609.34;;;18.79;94.41
4590;BME280;2307;48.448;9.216;2023-07-13T06:41:17;95608.50;;;18.83;95.20
4590;BME280;2307;48.448;9.216;2023-07-13T06:43:43;95609.28;;;18.84;92.24
4590;BME280;2307;48.448;9.216;2023-07-13T06:46:11;95611.53;;;19.00;96.10
4590;BME280;2307;48.448;9.216;2023-07-13T06:48:37;95623.38;;;18.94;87.73
4590;BME280;2307;48.448;9.216;2023-07-13T06:51:04;95624.69;;;18.97;85.88
4590;BME280;2307;48.448;9.216;2023-07-13T06:53:30;95618.97;;;19.08;89.07
4590;BME280;2307;48.448;9.216;2023-07-13T06:55:56;95618.91;;;19.14;86.23
4590;BME280;2307;48.448;9.216;2023-07-13T06:58:23;95616.31;;;19.08;83.46
4590;BME280;2307;48.448;9.216;2023-07-13T07:00:50;95621.50;;;19.24;81.92
4590;BME280;2307;48.448;9.216;2023-07-13T07:03:18;95628.09;;;19.07;82.83
4590;BME280;2307;48.448;9.216;2023-07-13T07:05:44;95622.16;;;19.10;87.92
4590;BME280;2307;48.448;9.216;2023-07-13T07:08:11;95626.78;;;19.29;94.19
4590;BME280;2307;48.448;9.216;2023-07-13T07:10:37;95627.47;;;19.44;100.00
4590;BME280;2307;48.448;9.216;2023-07-13T07:13:04;95631.34;;;19.57;87.69
4590;BME280;2307;48.448;9.216;2023-07-13T07:15:30;95624.09;;;19.57;87.14
4590;BME280;2307;48.448;9.216;2023-07-13T07:17:57;95627.00;;;19.61;81.96
4590;BME280;2307;48.448;9.216;2023-07-13T07:20:24;95629.00;;;19.50;79.85
4590;BME280;2307;48.448;9.216;2023-07-13T07:22:51;95631.81;;;19.64;83.04
4590;BME280;2307;48.448;9.216;2023-07-13T07:25:18;95628.28;;;19.69;83.34
4590;BME280;2307;48.448;9.216;2023-07-13T07:27:44;95621.66;;;19.61;89.79
4590;BME280;2307;48.448;9.216;2023-07-13T07:30:11;95633.88;;;19.72;82.10
4590;BME280;2307;48.448;9.216;2023-07-13T07:32:38;95635.31;;;19.83;86.13
4590;BME280;2307;48.448;9.216;2023-07-13T07:35:05;95637.75;;;19.85;82.88
4590;BME280;2307;48.448;9.216;2023-07-13T07:37:32;95635.56;;;19.87;79.08
4590;BME280;2307;48.448;9.216;2023-07-13T07:39:59;95631.72;;;19.93;71.49
4590;BME280;2307;48.448;9.216;2023-07-13T07:42:25;95635.78;;;19.90;67.34
4590;BME280;2307;48.448;9.216;2023-07-13T07:44:52;95636.09;;;20.07;57.32
4590;BME280;2307;48.448;9.216;2023-07-13T07:47:18;95641.25;;;20.04;57.65
4590;BME280;2307;48.448;9.216;2023-07-13T07:49:44;95645.16;;;20.11;56.32
4590;BME280;2307;48.448;9.216;2023-07-13T07:52:11;95645.88;;;20.17;55.34
4590;BME280;2307;48.448;9.216;2023-07-13T07:54:38;95646.47;;;20.14;58.64
4590;BME280;2307;48.448;9.216;2023-07-13T07:57:05;95637.56;;;20.19;64.52
4590;BME280;2307;48.448;9.216;2023-07-13T07:59:33;95638.75;;;20.07;66.77
4590;BME280;2307;48.448;9.216;2023-07-13T08:01:59;95650.16;;;19.99;64.97
4590;BME280;2307;48.448;9.216;2023-07-13T08:04:27;95640.44;;;20.03;61.13
4590;BME280;2307;48.448;9.216;2023-07-13T08:06:54;95647.47;;;20.18;58.22
4590;BME280;2307;48.448;9.216;2023-07-13T08:09:21;95647.81;;;20.35;56.50
4590;BME280;2307;48.448;9.216;2023-07-13T08:11:49;95644.03;;;20.36;53.41
4590;BME280;2307;48.448;9.216;2023-07-13T08:14:17;95641.44;;;20.31;54.05
4590;BME280;2307;48.448;9.216;2023-07-13T08:16:43;95644.75;;;20.23;56.86
4590;BME280;2307;48.448;9.216;2023-07-13T08:19:10;95645.72;;;20.32;58.05
4590;BME280;2307;48.448;9.216;2023-07-13T08:21:36;95640.84;;;20.53;58.43
4590;BME280;2307;48.448;9.216;2023-07-13T08:24:03;95649.56;;;20.63;54.76
4590;BME280;2307;48.448;9.216;2023-07-13T08:26:29;95642.38;;;20.59;62.87
4590;BME280;2307;48.448;9.216;2023-07-13T08:28:57;95642.00;;;20.65;63.35
4590;BME280;2307;48.448;9.216;2023-07-13T08:31:23;95642.22;;;20.69;54.74
4590;BME280;2307;48.448;9.216;2023-07-13T08:33:49;95645.84;;;20.78;56.06
4590;BME280;2307;48.448;9.216;2023-07-13T08:36:16;95637.88;;;20.73;54.74
4590;BME280;2307;48.448;9.216;2023-07-13T08:38:42;95636.75;;;20.74;60.90
4590;BME280;2307;48.448;9.216;2023-07-13T08:41:11;95643.69;;;20.94;53.44
4590;BME280;2307;48.448;9.216;2023-07-13T08:43:37;95647.59;;;21.01;53.72
4590;BME280;2307;48.448;9.216;2023-07-13T08:46:07;95648.09;;;21.03;54.79
4590;BME280;2307;48.448;9.216;2023-07-13T08:48:35;95654.44;;;21.12;55.54
4590;BME280;2307;48.448;9.216;2023-07-13T08:51:04;95655.44;;;21.16;54.17
4590;BME280;2307;48.448;9.216;2023-07-13T08:53:36;95651.66;;;21.17;56.63
4590;BME280;2307;48.448;9.216;2023-07-13T08:56:04;95649.41;;;21.25;51.05
4590;BME280;2307;48.448;9.216;2023-07-13T08:58:35;95656.53;;;21.15;53.26
4590;BME280;2307;48.448;9.216;2023-07-13T09:01:05;95650.66;;;21.13;56.16
4590;BME280;2307;48.448;9.216;2023-07-13T09:03:40;95650.72;;;21.08;58.73
4590;BME280;2307;48.448;9.216;2023-07-13T09:06:08;95652.53;;;21.13;54.91
4590;BME280;2307;48.448;9.216;2023-07-13T09:08:41;95654.97;;;21.28;53.64
4590;BME280;2307;48.448;9.216;2023-07-13T09:11:14;95655.00;;;21.42;52.22
4590;BME280;2307;48.448;9.216;2023-07-13T09:13:48;95661.97;;;21.43;50.75
4590;BME280;2307;48.448;9.216;2023-07-13T09:16:18;95656.19;;;21.36;50.25
4590;BME280;2307;48.448;9.216;2023-07-13T09:18:47;95664.06;;;21.46;49.65
4590;BME280;2307;48.448;9.216;2023-07-13T09:21:16;95658.19;;;21.57;48.69
4590;BME280;2307;48.448;9.216;2023-07-13T09:23:44;95658.88;;;21.63;48.42
4590;BME280;2307;48.448;9.216;2023-07-13T09:26:11;95659.59;;;21.55;46.54
4590;BME280;2307;48.448;9.216;2023-07-13T09:28:40;95656.50;;;21.48;51.27
4590;BME280;2307;48.448;9.216;2023-07-13T09:31:09;95658.75;;;21.41;47.68
4590;BME280;2307;48.448;9.216;2023-07-13T09:33:37;95666.34;;;21.66;51.74
4590;BME280;2307;48.448;9.216;2023-07-13T09:36:08;95659.59;;;21.55;48.09
4590;BME280;2307;48.448;9.216;2023-07-13T09:38:42;95662.06;;;21.51;49.92
4590;BME280;2307;48.448;9.216;2023-07-13T09:41:19;95664.69;;;21.70;49.62
4590;BME280;2307;48.448;9.216;2023-07-13T09:44:00;95656.03;;;21.59;50.14
4590;BME280;2307;48.448;9.216;2023-07-13T09:46:26;95657.38;;;21.57;49.38
4590;BME280;2307;48.448;9.216;2023-07-13T09:48:53;95653.53;;;21.49;47.51
4590;BME280;2307;48.448;9.216;2023-07-13T09:51:23;95656.72;;;21.65;49.82
4590;BME280;2307;48.448;9.216;2023-07-13T09:53:49;95664.09;;;21.59;48.55
4590;BME280;2307;48.448;9.216;2023-07-13T09:56:19;95665.38;;;21.76;49.69
4590;BME280;2307;48.448;9.216;2023-07-13T09:58:46;95661.09;;;21.75;47.10
4590;BME280;2307;48.448;9.216;2023-07-13T10:01:13;95661.63;;;21.90;48.35
4590;BME280;2307;48.448;9.216;2023-07-13T10:03:42;95659.84;;;22.13;47.76
4590;BME280;2307;48.448;9.216;2023-07-13T10:06:19;95663.59;;;22.26;50.16
4590;BME280;2307;48.448;9.216;2023-07-13T10:08:48;95663.13;;;22.46;49.43
4590;BME280;2307;48.448;9.216;2023-07-13T10:11:17;95677.66;;;22.58;45.70
4590;BME280;2307;48.448;9.216;2023-07-13T10:13:46;95668.91;;;22.53;44.22
4590;BME280;2307;48.448;9.216;2023-07-13T10:16:14;95667.50;;;22.69;48.07
4590;BME280;2307;48.448;9.216;2023-07-13T10:18:43;95659.06;;;22.84;49.02
4590;BME280;2307;48.448;9.216;2023-07-13T10:21:12;95666.09;;;23.16;52.46
4590;BME280;2307;48.448;9.216;2023-07-13T10:23:39;95662.69;;;23.46;42.56
4590;BME280;2307;48.448;9.216;2023-07-13T10:26:11;95657.63;;;23.31;43.58
4590;BME280;2307;48.448;9.216;2023-07-13T10:28:39;95661.63;;;23.56;45.14
4590;BME280;2307;48.448;9.216;2023-07-13T10:31:08;95655.63;;;23.67;43.09
4590;BME280;2307;48.448;9.216;2023-07-13T10:33:36;95660.84;;;23.64;42.58
4590;BME280;2307;48.448;9.216;2023-07-13T10:36:05;95661.28;;;23.57;42.48
4590;BME280;2307;48.448;9.216;2023-07-13T10:38:38;95661.47;;;23.61;41.30
4590;BME280;2307;48.448;9.216;2023-07-13T10:41:05;95660.66;;;23.52;41.96
4590;BME280;2307;48.448;9.216;2023-07-13T10:43:36;95662.06;;;23.49;43.79
4590;BME280;2307;48.448;9.216;2023-07-13T10:46:04;95662.34;;;23.48;43.55
4590;BME280;2307;48.448;9.216;2023-07-13T10:48:31;95659.88;;;23.60;43.46
4590;BME280;2307;48.448;9.216;2023-07-13T10:50:59;95647.66;;;24.02;41.21
4590;BME280;2307;48.448;9.216;2023-07-13T10:53:27;95649.19;;;24.33;41.16
4590;BME280;2307;48.448;9.216;2023-07-13T10:55:55;95650.28;;;24.15;40.31
4590;BME280;2307;48.448;9.216;2023-07-13T10:58:28;95656.66;;;24.37;39.24
4590;BME280;2307;48.448;9.216;2023-07-13T11:01:00;95644.00;;;24.63;42.48
4590;BME280;2307;48.448;9.216;2023-07-13T11:03:28;95641.31;;;24.97;44.21
4590;BME280;2307;48.448;9.216;2023-07-13T11:06:04;95641.53;;;25.38;41.79
4590;BME280;2307;48.448;9.216;2023-07-13T11:08:34;95643.22;;;25.69;38.67
4590;BME280;2307;48.448;9.216;2023-07-13T11:11:03;95644.34;;;25.68;36.34
4590;BME280;2307;48.448;9.216;2023-07-13T11:13:37;95632.31;;;25.40;37.95
4590;BME280;2307;48.448;9.216;2023-07-13T11:16:13;95620.56;;;25.35;38.10
4590;BME280;2307;48.448;9.216;2023-07-13T11:18:40;95618.47;;;25.50;38.90
4590;BME280;2307;48.448;9.216;2023-07-13T11:21:16;95628.00;;;25.94;37.02
4590;BME280;2307;48.448;9.216;2023-07-13T11:23:43;95626.13;;;26.15;36.86
4590;BME280;2307;48.448;9.216;2023-07-13T11:28:52;95619.41;;;25.92;34.54
4590;BME280;2307;48.448;9.216;2023-07-13T11:31:20;95628.97;;;25.89;34.98
4590;BME280;2307;48.448;9.216;2023-07-13T11:33:50;95634.38;;;25.89;33.87
4590;BME280;2307;48.448;9.216;2023-07-13T11:36:17;95626.41;;;25.93;33.35
4590;BME280;2307;48.448;9.216;2023-07-13T11:38:48;95626.34;;;25.72;34.92
4590;BME280;2307;48.448;9.216;2023-07-13T11:41:17;95617.19;;;25.56;34.69
4590;BME280;2307;48.448;9.216;2023-07-13T11:43:45;95616.06;;;25.57;34.70
4590;BME280;2307;48.448;9.216;2023-07-13T11:46:12;95619.06;;;25.64;35.72
4590;BME280;2307;48.448;9.216;2023-07-13T11:48:40;95617.31;;;25.68;36.39
4590;BME280;2307;48.448;9.216;2023-07-13T11:51:07;95617.34;;;25.88;35.86
4590;BME280;2307;48.448;9.216;2023-07-13T11:53:43;95613.41;;;26.15;34.73
4590;BME280;2307;48.448;9.216;2023-07-13T11:56:10;95609.09;;;26.14;35.48
4590;BME280;2307;48.448;9.216;2023-07-13T11:58:37;95610.78;;;26.27;34.42
4590;BME280;2307;48.448;9.216;2023-07-13T12:01:04;95611.44;;;26.24;35.37
4590;BME280;2307;48.448;9.216;2023-07-13T12:03:31;95611.88;;;26.35;35.53
4590;BME280;2307;48.448;9.216;2023-07-13T12:06:01;95613.81;;;26.26;35.08
4590;BME280;2307;48.448;9.216;2023-07-13T12:08:28;95618.81;;;26.15;37.04
4590;BME280;2307;48.448;9.216;2023-07-13T12:11:03;95618.19;;;26.18;35.34
4590;BME280;2307;48.448;9.216;2023-07-13T12:13:35;95615.00;;;26.16;34.53
4590;BME280;2307;48.448;9.216;2023-07-13T12:16:01;95618.19;;;26.18;34.81
4590;BME280;2307;48.448;9.216;2023-07-13T12:18:28;95616.69;;;26.50;33.62
4590;BME280;2307;48.448;9.216;2023-07-13T12:20:56;95619.59;;;26.66;33.48
4590;BME280;2307;48.448;9.216;2023-07-13T12:23:25;95611.69;;;26.81;34.29
4590;BME280;2307;48.448;9.216;2023-07-13T12:25:54;95615.81;;;27.00;34.45
4590;BME280;2307;48.448;9.216;2023-07-13T12:28:22;95614.28;;;27.11;33.03
4590;BME280;2307;48.448;9.216;2023-07-13T12:30:49;95611.88;;;27.42;34.26
4590;BME280;2307;48.448;9.216;2023-07-13T12:33:15;95612.97;;;27.74;33.01
4590;BME280;2307;48.448;9.216;2023-07-13T12:35:43;95612.78;;;28.15;32.18
4590;BME280;2307;48.448;9.216;2023-07-13T12:38:11;95611.59;;;28.40;31.02
4590;BME280;2307;48.448;9.216;2023-07-13T12:40:39;95614.41;;;28.68;30.13
4590;BME280;2307;48.448;9.216;2023-07-13T12:43:10;95617.94;;;28.32;32.12
4590;BME280;2307;48.448;9.216;2023-07-13T12:45:37;95614.94;;;28.10;31.39
4590;BME280;2307;48.448;9.216;2023-07-13T12:48:04;95610.94;;;27.71;33.44
4590;BME280;2307;48.448;9.216;2023-07-13T12:50:36;95609.84;;;27.39;33.34
4590;BME280;2307;48.448;9.216;2023-07-13T12:53:04;95618.06;;;27.30;32.16
4590;BME280;2307;48.448;9.216;2023-07-13T12:55:39;95612.44;;;27.35;32.57
4590;BME280;2307;48.448;9.216;2023-07-13T12:58:09;95609.31;;;27.46;31.30
4590;BME280;2307;48.448;9.216;2023-07-13T13:00:39;95615.69;;;27.62;30.87
4590;BME280;2307;48.448;9.216;2023-07-13T13:03:06;95616.78;;;27.49;31.88
4590;BME280;2307;48.448;9.216;2023-07-13T13:05:33;95613.53;;;27.22;30.78
4590;BME280;2307;48.448;9.216;2023-07-13T13:08:01;95607.56;;;27.29;31.84
4590;BME280;2307;48.448;9.216;2023-07-13T13:10:28;95606.59;;;27.46;32.20
4590;BME280;2307;48.448;9.216;2023-07-13T13:12:54;95597.13;;;27.52;31.88
4590;BME280;2307;48.448;9.216;2023-07-13T13:15:22;95607.16;;;27.18;32.09
4590;BME280;2307;48.448;9.216;2023-07-13T13:17:48;95604.19;;;26.99;31.88
4590;BME280;2307;48.448;9.216;2023-07-13T13:20:15;95604.19;;;26.78;32.05
4590;BME280;2307;48.448;9.216;2023-07-13T13:22:42;95599.63;;;26.91;31.17